createdAt,value
2023-04-13T00:00:36.878Z,99802.44
2023-04-13T00:03:04.532Z,99823.66
2023-04-13T00:05:31.796Z,99778.88
2023-04-13T00:08:03.204Z,99768.19
2023-04-13T00:10:31.653Z,99809.69
2023-04-13T00:13:01.613Z,99803.47
2023-04-13T00:15:28.289Z,99749.38
2023-04-13T00:17:54.904Z,99810.63
2023-04-13T00:20:21.491Z,99781.16
2023-04-13T00:22:49.066Z,99788.97
2023-04-13T00:25:16.662Z,99807.00
2023-04-13T00:27:44.281Z,99812.31
2023-04-13T00:30:15.888Z,99813.38
2023-04-13T00:32:43.935Z,99793.00
2023-04-13T00:35:12.230Z,99790.28
2023-04-13T00:37:39.224Z,99769.16
2023-04-13T00:40:08.490Z,99787.38
2023-04-13T00:42:35.480Z,99774.38
2023-04-13T00:45:02.360Z,99740.50
2023-04-13T00:47:32.435Z,99798.38
2023-04-13T00:52:43.122Z,99818.88
2023-04-13T00:55:09.931Z,99821.44
2023-04-13T00:57:41.046Z,99830.97
2023-04-13T01:00:12.937Z,99833.19
2023-04-13T01:02:42.913Z,99765.72
2023-04-13T01:05:12.881Z,99807.06
2023-04-13T01:08:02.103Z,99760.09
2023-04-13T01:10:36.944Z,99798.81
2023-04-13T01:13:12.299Z,99800.66
2023-04-13T01:15:46.480Z,99806.16
2023-04-13T01:18:15.724Z,99812.53
2023-04-13T01:20:45.496Z,99794.63
2023-04-13T01:23:35.452Z,99792.75
2023-04-13T01:26:08.840Z,99829.13
2023-04-13T01:28:38.764Z,99817.25
2023-04-13T01:31:11.917Z,99828.47
2023-04-13T01:33:41.424Z,99812.28
2023-04-13T01:36:10.628Z,99780.41
2023-04-13T01:38:38.056Z,99831.41
2023-04-13T01:41:04.926Z,99842.63
2023-04-13T01:43:32.478Z,99824.59
2023-04-13T01:46:04.264Z,99757.34
2023-04-13T01:48:37.533Z,99818.28
2023-04-13T01:51:11.290Z,99815.00
2023-04-13T01:53:42.684Z,99825.31
2023-04-13T01:56:09.691Z,99766.78
2023-04-13T01:58:36.721Z,99806.47
2023-04-13T02:01:07.945Z,99846.63
2023-04-13T02:03:36.299Z,99859.34
2023-04-13T02:06:03.289Z,99826.78
2023-04-13T02:08:32.915Z,99831.06
2023-04-13T02:11:01.085Z,99850.69
2023-04-13T02:13:27.690Z,99856.16
2023-04-13T02:15:54.248Z,99871.66
2023-04-13T02:18:21.107Z,99847.56
2023-04-13T02:20:47.698Z,99856.38
2023-04-13T02:23:15.227Z,99864.50
2023-04-13T02:25:47.106Z,99855.84
2023-04-13T02:28:16.068Z,99854.06
2023-04-13T02:30:42.907Z,99817.03
2023-04-13T02:33:09.722Z,99895.50
2023-04-13T02:35:39.120Z,99883.00
2023-04-13T02:38:06.888Z,99918.09
2023-04-13T02:40:33.515Z,99890.66
2023-04-13T02:43:00.274Z,99905.47
2023-04-13T02:45:27.340Z,99913.03
2023-04-13T02:47:54.062Z,99928.34
2023-04-13T02:50:20.837Z,99929.78
2023-04-13T02:52:47.384Z,99900.91
2023-04-13T02:55:13.978Z,99945.38
2023-04-13T02:57:42.472Z,99948.28
2023-04-13T03:00:10.761Z,99959.13
2023-04-13T03:02:42.470Z,99922.31
2023-04-13T03:05:09.581Z,99954.72
2023-04-13T03:07:36.672Z,99896.66
2023-04-13T03:10:09.141Z,99951.72
2023-04-13T03:12:35.807Z,99931.28
2023-04-13T03:15:05.006Z,99944.78
2023-04-13T03:17:31.662Z,99952.19
2023-04-13T03:19:58.460Z,99899.69
2023-04-13T03:22:26.162Z,99958.41
2023-04-13T03:24:52.868Z,99966.91
2023-04-13T03:27:21.635Z,99961.94
2023-04-13T03:29:48.417Z,99958.78
2023-04-13T03:32:15.031Z,99961.69
2023-04-13T03:34:44.540Z,99961.47
2023-04-13T03:37:11.928Z,99948.81
2023-04-13T03:39:41.581Z,99956.34
2023-04-13T03:42:08.271Z,99951.72
2023-04-13T03:44:35.029Z,99920.13
2023-04-13T03:47:01.692Z,99958.28
2023-04-13T03:49:28.520Z,99948.44
2023-04-13T03:51:55.033Z,99974.94
2023-04-13T03:54:21.613Z,99976.91
2023-04-13T03:56:48.286Z,99974.84
2023-04-13T03:59:14.927Z,99995.34
2023-04-13T04:01:41.563Z,99953.19
2023-04-13T04:04:08.388Z,99967.19
2023-04-13T04:06:35.372Z,99928.03
2023-04-13T04:09:02.123Z,99972.63
2023-04-13T04:11:28.742Z,99991.22
2023-04-13T04:13:55.426Z,99961.31
2023-04-13T04:16:22.044Z,99993.91
2023-04-13T04:18:48.649Z,100001.69
2023-04-13T04:21:15.735Z,100036.81
2023-04-13T04:23:42.350Z,99959.38
2023-04-13T04:26:08.977Z,99994.84
2023-04-13T04:28:39.060Z,100032.06
2023-04-13T04:31:12.246Z,99835.78
2023-04-13T04:33:39.101Z,99971.16
2023-04-13T04:36:07.533Z,99993.75
2023-04-13T04:38:34.137Z,100052.22
2023-04-13T04:41:02.363Z,100030.50
2023-04-13T04:43:30.504Z,100041.69
2023-04-13T04:45:58.232Z,100025.91
2023-04-13T04:48:27.143Z,100082.56
2023-04-13T04:50:56.205Z,100059.06
2023-04-13T04:53:23.089Z,100059.94
2023-04-13T04:55:50.002Z,99935.16
2023-04-13T04:58:16.887Z,100100.34
2023-04-13T05:00:43.460Z,100125.41
2023-04-13T05:03:10.229Z,100180.41
2023-04-13T05:05:36.979Z,100202.16
2023-04-13T05:08:03.688Z,100205.78
2023-04-13T05:10:30.417Z,100170.63
2023-04-13T05:12:57.032Z,100198.09
2023-04-13T05:15:23.855Z,100283.44
2023-04-13T05:17:51.265Z,100290.06
2023-04-13T05:20:19.410Z,100266.69
2023-04-13T05:22:47.017Z,100269.31
2023-04-13T05:25:13.695Z,100346.31
2023-04-13T05:27:40.310Z,100371.44
2023-04-13T05:30:08.960Z,100390.59
2023-04-13T05:32:36.117Z,100357.00
2023-04-13T05:35:04.554Z,100380.44
2023-04-13T05:37:31.528Z,100372.34
2023-04-13T05:39:58.725Z,100403.41
2023-04-13T05:42:25.382Z,100439.63
2023-04-13T05:44:52.471Z,100380.13
2023-04-13T05:47:23.030Z,100469.47
2023-04-13T05:49:49.698Z,100475.50
2023-04-13T05:52:16.475Z,100489.44
2023-04-13T05:54:43.204Z,100481.16
2023-04-13T05:57:09.931Z,100473.28
2023-04-13T05:59:37.129Z,100511.53
2023-04-13T06:02:03.771Z,100511.16
2023-04-13T06:04:31.642Z,100515.88
2023-04-13T06:06:59.404Z,100513.50
2023-04-13T06:09:26.094Z,100536.59
2023-04-13T06:11:53.261Z,100687.03
2023-04-13T06:14:21.079Z,100717.84
2023-04-13T06:16:47.769Z,100695.94
2023-04-13T06:19:14.416Z,100695.34
2023-04-13T06:21:40.965Z,100678.50
2023-04-13T06:24:07.867Z,100679.13
2023-04-13T06:26:34.557Z,100697.56
2023-04-13T06:29:02.773Z,100688.31
2023-04-13T06:31:29.708Z,100626.63
2023-04-13T06:33:57.861Z,100692.28
2023-04-13T06:36:24.522Z,100666.19
2023-04-13T06:38:51.232Z,100641.50
2023-04-13T06:41:17.827Z,100701.09
2023-04-13T06:43:44.602Z,100642.34
2023-04-13T06:46:12.470Z,100695.94
2023-04-13T06:48:39.032Z,100701.09
2023-04-13T06:51:06.039Z,100657.72
2023-04-13T06:53:32.720Z,100717.81
2023-04-13T06:55:59.363Z,100686.03
2023-04-13T06:58:26.015Z,100689.44
2023-04-13T07:00:52.609Z,100734.34
2023-04-13T07:03:19.298Z,100712.09
2023-04-13T07:05:46.448Z,100733.91
2023-04-13T07:08:13.498Z,100735.88
2023-04-13T07:10:41.209Z,100741.88
2023-04-13T07:13:07.987Z,100746.31
2023-04-13T07:15:37.887Z,100736.84
2023-04-13T07:18:04.988Z,100742.97
2023-04-13T07:20:31.811Z,100693.75
2023-04-13T07:22:58.369Z,100747.53
2023-04-13T07:25:25.034Z,100733.19
2023-04-13T07:27:51.590Z,100747.78
2023-04-13T07:30:18.192Z,100742.59
2023-04-13T07:32:44.929Z,100736.59
2023-04-13T07:35:11.937Z,100734.38
2023-04-13T07:37:38.673Z,100725.50
2023-04-13T07:40:07.050Z,100712.28
2023-04-13T07:42:33.806Z,100702.63
2023-04-13T07:45:00.614Z,100721.09
2023-04-13T07:47:27.418Z,100720.91
2023-04-13T07:49:54.436Z,100705.28
2023-04-13T07:52:21.371Z,100639.09
2023-04-13T07:54:48.318Z,100687.06
2023-04-13T07:57:15.154Z,100653.22
2023-04-13T07:59:41.836Z,100636.09
2023-04-13T08:02:08.445Z,100696.44
2023-04-13T08:04:36.158Z,100639.16
2023-04-13T08:07:06.158Z,100677.38
2023-04-13T08:09:36.642Z,100687.94
2023-04-13T08:12:03.970Z,100637.81
2023-04-13T08:14:31.113Z,100647.88
2023-04-13T08:16:57.958Z,100475.47
2023-04-13T08:19:25.508Z,100444.34
2023-04-13T08:21:52.732Z,100144.84
2023-04-13T08:24:21.157Z,100020.88
2023-04-13T08:26:47.782Z,99959.25
2023-04-13T08:29:14.620Z,99983.09
2023-04-13T08:31:41.223Z,99986.78
2023-04-13T08:34:10.582Z,99966.34
2023-04-13T08:36:38.021Z,99966.47
2023-04-13T08:39:06.005Z,99951.06
2023-04-13T08:41:35.683Z,99942.44
2023-04-13T08:44:06.897Z,99964.56
2023-04-13T08:46:36.984Z,99928.25
2023-04-13T08:49:04.092Z,99929.56
2023-04-13T08:51:32.285Z,99949.22
2023-04-13T08:53:59.535Z,99892.59
2023-04-13T08:56:41.920Z,99953.50
2023-04-13T08:59:09.902Z,99965.84
2023-04-13T09:01:37.871Z,99936.69
2023-04-13T09:04:10.692Z,99957.47
2023-04-13T09:06:41.480Z,99941.69
2023-04-13T09:09:15.577Z,99979.00
2023-04-13T09:11:43.718Z,99960.47
2023-04-13T09:14:10.466Z,99981.59
2023-04-13T09:16:41.724Z,99981.00
2023-04-13T09:19:08.974Z,99961.22
2023-04-13T09:21:40.603Z,99990.44
2023-04-13T09:24:08.354Z,99977.31
2023-04-13T09:26:48.779Z,99966.38
2023-04-13T09:29:20.545Z,99950.25
2023-04-13T09:31:47.815Z,99964.94
2023-04-13T09:34:25.520Z,99952.34
2023-04-13T09:36:54.541Z,99975.59
2023-04-13T09:39:29.257Z,99916.44
2023-04-13T09:41:56.279Z,99972.41
2023-04-13T09:44:28.692Z,99970.75
2023-04-13T09:47:03.094Z,99976.25
2023-04-13T09:49:43.336Z,99979.81
2023-04-13T09:52:20.671Z,99968.13
2023-04-13T09:54:51.654Z,99981.34
2023-04-13T09:57:33.506Z,99989.34
2023-04-13T10:00:07.532Z,99999.75
2023-04-13T10:02:34.363Z,99976.28
2023-04-13T10:05:01.832Z,100000.59
2023-04-13T10:07:30.809Z,99929.66
2023-04-13T10:09:57.436Z,100005.44
2023-04-13T10:12:26.944Z,100026.06
2023-04-13T10:15:06.665Z,99977.31
2023-04-13T10:17:53.986Z,100034.19
2023-04-13T10:20:21.733Z,100011.34
2023-04-13T10:22:51.198Z,99990.72
2023-04-13T10:25:31.933Z,100032.66
2023-04-13T10:28:00.802Z,100041.28
2023-04-13T10:30:27.886Z,100050.09
2023-04-13T10:33:05.887Z,100040.00
2023-04-13T10:35:37.186Z,100057.09
2023-04-13T10:38:04.593Z,100082.16
2023-04-13T10:40:42.715Z,100028.34
2023-04-13T10:43:09.513Z,100017.97
2023-04-13T10:45:37.969Z,100069.69
2023-04-13T10:48:04.822Z,100023.88
2023-04-13T10:50:31.723Z,100056.19
2023-04-13T10:53:06.952Z,100052.03
2023-04-13T10:55:35.310Z,100059.25
2023-04-13T10:58:03.461Z,100067.47
2023-04-13T11:00:45.654Z,100069.34
2023-04-13T11:03:17.841Z,100064.91
2023-04-13T11:05:47.347Z,100023.31
2023-04-13T11:08:21.948Z,100068.75
2023-04-13T11:10:52.867Z,100083.59
2023-04-13T11:13:19.641Z,100057.94
2023-04-13T11:15:49.415Z,100044.09
2023-04-13T11:18:25.819Z,100088.00
2023-04-13T11:20:52.620Z,100076.97
2023-04-13T11:23:20.240Z,100092.34
2023-04-13T11:26:01.679Z,100075.88
2023-04-13T11:28:40.446Z,100093.72
2023-04-13T11:31:07.847Z,100088.69
2023-04-13T11:33:38.582Z,100086.41
2023-04-13T11:36:07.538Z,100060.78
2023-04-13T11:38:34.181Z,100116.50
2023-04-13T11:41:15.723Z,100042.38
2023-04-13T11:43:46.599Z,100045.50
2023-04-13T11:46:15.878Z,100099.13
2023-04-13T11:48:43.687Z,100084.59
2023-04-13T11:51:11.586Z,100068.84
2023-04-13T11:53:39.728Z,100104.44
2023-04-13T11:56:07.089Z,100101.34
2023-04-13T11:58:33.858Z,100058.66
2023-04-13T12:01:13.324Z,100114.88
2023-04-13T12:03:56.970Z,100052.97
2023-04-13T12:06:30.028Z,100122.00
2023-04-13T12:09:09.123Z,100114.69
2023-04-13T12:11:42.208Z,100076.84
2023-04-13T12:14:52.075Z,100115.00
2023-04-13T12:17:38.375Z,100106.19
2023-04-13T12:20:07.282Z,100084.88
2023-04-13T12:22:57.704Z,100127.16
2023-04-13T12:27:59.508Z,100121.78
2023-04-13T12:30:27.322Z,100127.88
2023-04-13T12:32:55.787Z,100134.41
2023-04-13T12:35:22.741Z,100140.34
2023-04-13T12:37:50.468Z,100145.38
2023-04-13T12:40:18.737Z,100135.44
2023-04-13T12:42:46.823Z,100143.75
2023-04-13T12:45:14.487Z,100146.81
2023-04-13T12:47:41.844Z,100142.72
2023-04-13T12:50:10.708Z,100148.69
2023-04-13T12:52:41.075Z,100154.16
2023-04-13T12:55:08.587Z,100100.44
2023-04-13T12:57:35.487Z,100107.84
2023-04-13T13:00:02.118Z,100159.88
2023-04-13T13:02:31.197Z,100156.34
2023-04-13T13:04:59.279Z,100179.50
2023-04-13T13:07:27.704Z,100131.69
2023-04-13T13:09:54.259Z,100106.59
2023-04-13T13:12:20.868Z,100173.56
2023-04-13T13:14:47.543Z,100165.72
2023-04-13T13:17:14.190Z,100187.03
2023-04-13T13:19:40.785Z,100190.59
2023-04-13T13:22:07.414Z,100200.59
2023-04-13T13:24:34.284Z,100197.03
2023-04-13T13:27:30.410Z,100193.47
2023-04-13T13:29:47.533Z,100168.91
2023-04-13T13:32:14.560Z,100192.06
2023-04-13T13:34:41.855Z,100213.47
2023-04-13T13:37:09.101Z,100201.91
2023-04-13T13:39:37.474Z,100198.19
2023-04-13T13:42:04.605Z,100191.50
2023-04-13T13:44:31.341Z,100190.97
2023-04-13T13:46:58.063Z,100195.34
2023-04-13T13:49:25.466Z,100155.63
2023-04-13T13:51:52.459Z,100179.84
2023-04-13T13:54:20.459Z,100169.94
2023-04-13T13:56:47.182Z,100097.53
2023-04-13T13:59:13.777Z,100225.47
2023-04-13T14:01:41.133Z,100237.03
2023-04-13T14:04:08.156Z,100247.94
2023-04-13T14:06:35.187Z,100187.38
2023-04-13T14:09:02.266Z,100220.88
2023-04-13T14:11:29.830Z,100247.41
2023-04-13T14:13:56.647Z,100241.13
2023-04-13T14:16:23.805Z,100235.88
2023-04-13T14:18:50.698Z,100244.38
2023-04-13T14:21:21.620Z,100278.22
2023-04-13T14:23:49.850Z,100251.50
2023-04-13T14:26:16.752Z,100307.88
2023-04-13T14:28:44.467Z,100329.81
2023-04-13T14:31:11.317Z,100324.97
2023-04-13T14:33:38.181Z,100337.06
2023-04-13T14:36:05.022Z,100308.94
2023-04-13T14:38:32.237Z,100289.75
2023-04-13T14:40:58.979Z,100348.72
2023-04-13T14:43:25.574Z,100317.69
2023-04-13T14:45:58.166Z,100337.78
2023-04-13T14:48:24.840Z,100349.16
2023-04-13T14:50:52.966Z,100328.50
2023-04-13T14:53:19.688Z,100316.16
2023-04-13T14:55:46.287Z,100333.50
2023-04-13T14:58:13.107Z,100339.78
2023-04-13T15:00:39.946Z,100349.47
2023-04-13T15:03:08.625Z,100350.88
2023-04-13T15:05:45.564Z,100329.03
2023-04-13T15:08:14.364Z,100352.53
2023-04-13T15:10:41.464Z,100327.19
2023-04-13T15:13:08.567Z,100351.78
2023-04-13T15:15:36.846Z,100324.50
2023-04-13T15:18:04.707Z,100360.19
2023-04-13T15:20:31.747Z,100352.47
2023-04-13T15:22:59.181Z,100354.19
2023-04-13T15:25:27.193Z,100355.28
2023-04-13T15:27:56.017Z,100312.31
2023-04-13T15:30:28.138Z,100294.94
2023-04-13T15:33:05.011Z,100367.06
2023-04-13T15:35:34.690Z,100357.53
2023-04-13T15:38:03.578Z,100372.53
2023-04-13T15:40:34.986Z,100388.63
2023-04-13T15:43:02.191Z,100384.31
2023-04-13T15:45:28.847Z,100392.63
2023-04-13T15:47:55.464Z,100412.78
2023-04-13T15:50:22.308Z,100396.44
2023-04-13T15:52:48.866Z,100401.09
2023-04-13T15:55:15.485Z,100402.78
2023-04-13T15:57:42.088Z,100415.31
2023-04-13T16:00:09.416Z,100416.47
2023-04-13T16:02:37.532Z,100250.75
2023-04-13T16:05:04.588Z,100420.25
2023-04-13T16:07:31.544Z,100440.88
2023-04-13T16:09:58.502Z,100374.03
2023-04-13T16:12:32.122Z,100426.75
2023-04-13T16:14:59.772Z,100388.72
2023-04-13T16:17:33.456Z,100444.03
2023-04-13T16:20:19.613Z,100457.00
2023-04-13T16:22:49.851Z,100404.66
2023-04-13T16:25:17.939Z,100412.91
2023-04-13T16:27:46.048Z,100470.69
2023-04-13T16:30:13.547Z,100478.53
2023-04-13T16:32:44.958Z,100483.63
2023-04-13T16:35:12.513Z,100478.91
2023-04-13T16:37:42.899Z,100417.13
2023-04-13T16:40:11.189Z,100404.03
2023-04-13T16:42:41.200Z,100492.13
2023-04-13T16:45:11.392Z,100524.72
2023-04-13T16:47:39.021Z,100532.16
2023-04-13T16:50:07.364Z,100554.78
2023-04-13T16:52:34.849Z,100550.91
2023-04-13T16:55:02.695Z,100574.97
2023-04-13T16:57:29.417Z,100577.13
2023-04-13T17:00:00.008Z,100574.81
2023-04-13T17:02:31.497Z,100570.47
2023-04-13T17:04:59.017Z,100610.88
2023-04-13T17:07:28.244Z,100717.94
2023-04-13T17:09:57.770Z,100876.28
2023-04-13T17:12:25.141Z,100851.88
2023-04-13T17:14:51.778Z,100859.88
2023-04-13T17:17:18.386Z,100787.09
2023-04-13T17:19:45.074Z,100864.19
2023-04-13T17:22:11.979Z,100841.06
2023-04-13T17:24:38.888Z,100828.44
2023-04-13T17:27:06.509Z,100824.91
2023-04-13T17:29:36.446Z,100808.56
2023-04-13T17:32:03.082Z,100793.31
2023-04-13T17:34:29.765Z,100801.16
2023-04-13T17:36:57.903Z,100803.28
2023-04-13T17:39:24.682Z,100789.59
2023-04-13T17:41:51.354Z,100813.91
2023-04-13T17:44:17.923Z,100800.38
2023-04-13T17:46:45.898Z,100725.72
2023-04-13T17:49:14.536Z,100789.13
2023-04-13T17:51:44.824Z,100783.72
2023-04-13T17:54:12.531Z,100812.59
2023-04-13T17:56:39.386Z,100632.44
2023-04-13T17:59:05.996Z,100790.09
2023-04-13T18:01:32.550Z,100805.28
2023-04-13T18:04:00.063Z,100806.53
2023-04-13T18:06:27.470Z,100808.38
2023-04-13T18:08:54.097Z,100809.22
2023-04-13T18:11:20.694Z,100811.88
2023-04-13T18:13:47.235Z,100815.13
2023-04-13T18:16:14.438Z,100805.47
2023-04-13T18:18:41.200Z,100821.75
2023-04-13T18:21:08.391Z,100827.13
2023-04-13T18:23:35.125Z,100819.19
2023-04-13T18:26:02.087Z,100759.66
2023-04-13T18:28:29.834Z,100827.84
2023-04-13T18:31:02.106Z,100775.22
2023-04-13T18:33:29.503Z,100766.44
2023-04-13T18:35:56.244Z,100823.59
2023-04-13T18:38:25.547Z,100805.66
2023-04-13T18:40:52.237Z,100832.34
2023-04-13T18:43:19.637Z,100843.63
2023-04-13T18:45:46.277Z,100857.91
2023-04-13T18:48:12.914Z,100793.75
2023-04-13T18:50:39.562Z,100864.13
2023-04-13T18:53:06.225Z,100864.00
2023-04-13T18:55:32.923Z,100850.13
2023-04-13T18:57:59.513Z,100807.72
2023-04-13T19:00:26.185Z,100885.00
2023-04-13T19:02:53.122Z,100860.84
2023-04-13T19:05:20.573Z,100838.03
2023-04-13T19:07:58.911Z,100893.47
2023-04-13T19:10:28.281Z,100890.19
2023-04-13T19:12:56.453Z,100879.31
2023-04-13T19:15:24.246Z,100888.34
2023-04-13T19:17:52.284Z,100839.13
2023-04-13T19:20:22.197Z,100894.41
2023-04-13T19:22:48.848Z,100898.09
2023-04-13T19:25:15.751Z,100888.63
2023-04-13T19:27:46.740Z,100884.22
2023-04-13T19:30:15.060Z,100886.31
2023-04-13T19:32:44.373Z,100824.63
2023-04-13T19:35:12.952Z,100834.88
2023-04-13T19:37:40.193Z,100878.81
2023-04-13T19:40:12.638Z,100886.06
2023-04-13T19:42:43.769Z,100888.91
2023-04-13T19:45:11.232Z,100876.13
2023-04-13T19:47:38.677Z,100869.22
2023-04-13T19:50:07.390Z,100885.31
2023-04-13T19:52:34.195Z,100822.94
2023-04-13T19:55:00.795Z,100887.16
2023-04-13T19:57:28.659Z,100881.84
2023-04-13T19:59:55.405Z,100877.44
2023-04-13T20:02:22.272Z,100889.28
2023-04-13T20:04:53.391Z,100856.97
2023-04-13T20:07:20.709Z,100802.91
2023-04-13T20:09:49.127Z,100889.81
2023-04-13T20:12:16.546Z,100897.50
2023-04-13T20:14:45.765Z,100845.06
2023-04-13T20:17:13.126Z,100887.28
2023-04-13T20:19:39.705Z,100927.13
2023-04-13T20:22:07.238Z,100882.50
2023-04-13T20:24:33.870Z,100929.56
2023-04-13T20:27:00.632Z,100933.00
2023-04-13T20:29:27.738Z,100942.03
2023-04-13T20:31:54.878Z,100921.00
2023-04-13T20:34:22.245Z,100932.47
2023-04-13T20:36:49.131Z,100937.66
2023-04-13T20:39:18.618Z,100928.72
2023-04-13T20:41:55.288Z,100938.91
2023-04-13T20:44:25.952Z,100893.91
2023-04-13T20:46:56.312Z,100960.34
2023-04-13T20:49:24.306Z,100936.97
2023-04-13T20:51:56.156Z,100962.91
2023-04-13T20:54:23.518Z,100942.72
2023-04-13T20:56:50.349Z,100979.06
2023-04-13T20:59:18.613Z,100939.06
2023-04-13T21:01:45.933Z,100735.09
2023-04-13T21:04:12.827Z,100976.38
2023-04-13T21:06:40.710Z,100972.41
2023-04-13T21:09:08.656Z,100984.97
2023-04-13T21:11:35.603Z,100968.75
2023-04-13T21:14:02.738Z,100981.25
2023-04-13T21:16:29.598Z,100995.41
2023-04-13T21:18:57.199Z,100991.34
2023-04-13T21:21:25.115Z,100999.13
2023-04-13T21:23:53.397Z,101005.50
2023-04-13T21:26:20.874Z,101023.44
2023-04-13T21:28:47.709Z,101002.16
2023-04-13T21:31:14.409Z,100992.69
2023-04-13T21:33:41.159Z,100996.59
2023-04-13T21:38:41.641Z,100987.16
2023-04-13T21:41:18.900Z,100985.91
2023-04-13T21:43:46.390Z,100997.41
2023-04-13T21:46:14.012Z,100983.94
2023-04-13T21:48:41.295Z,100994.22
2023-04-13T21:51:09.415Z,101000.56
2023-04-13T21:53:36.346Z,101004.97
2023-04-13T21:56:03.266Z,101002.41
2023-04-13T21:58:38.547Z,100994.69
2023-04-13T22:01:05.548Z,101005.47
2023-04-13T22:03:35.357Z,101008.78
2023-04-13T22:06:02.538Z,101005.84
2023-04-13T22:08:29.355Z,101005.44
2023-04-13T22:10:55.995Z,101006.19
2023-04-13T22:13:22.526Z,101006.03
2023-04-13T22:15:49.275Z,101007.75
2023-04-13T22:18:16.109Z,101008.00
2023-04-13T22:20:42.737Z,100990.72
2023-04-13T22:23:10.088Z,101000.78
2023-04-13T22:25:36.942Z,100991.09
2023-04-13T22:28:03.925Z,100997.59
2023-04-13T22:30:30.568Z,101002.97
2023-04-13T22:32:57.255Z,100987.94
2023-04-13T22:35:24.912Z,100978.41
2023-04-13T22:37:51.564Z,100999.00
2023-04-13T22:40:18.357Z,101005.09
2023-04-13T22:42:44.982Z,101005.66
2023-04-13T22:45:11.768Z,100996.81
2023-04-13T22:47:38.567Z,100991.22
2023-04-13T22:50:05.708Z,101025.53
2023-04-13T22:52:32.294Z,101019.44
2023-04-13T22:54:58.996Z,101015.56
2023-04-13T22:57:25.920Z,101017.78
2023-04-13T22:59:52.487Z,101019.81
2023-04-13T23:02:19.114Z,101023.31
2023-04-13T23:04:46.138Z,101038.13
2023-04-13T23:07:12.819Z,101029.63
2023-04-13T23:09:39.444Z,101027.88
2023-04-13T23:12:06.536Z,101037.06
2023-04-13T23:14:33.093Z,101034.91
2023-04-13T23:16:59.785Z,100997.59
2023-04-13T23:19:26.360Z,101052.72
2023-04-13T23:21:52.938Z,101056.41
2023-04-13T23:24:19.547Z,101061.22
2023-04-13T23:26:46.315Z,101062.69
2023-04-13T23:29:12.922Z,101057.22
2023-04-13T23:31:39.565Z,101061.22
2023-04-13T23:34:06.224Z,101077.66
2023-04-13T23:36:33.904Z,101071.22
2023-04-13T23:39:00.803Z,101072.00
2023-04-13T23:41:27.504Z,101074.03
2023-04-13T23:43:54.143Z,101078.78
2023-04-13T23:46:22.746Z,101069.06
2023-04-13T23:48:49.405Z,101088.66
2023-04-13T23:51:16.002Z,101092.16
2023-04-13T23:53:42.603Z,101097.13
2023-04-13T23:56:09.245Z,101095.28
2023-04-13T23:58:35.951Z,101086.06
